createdAt,value
2022-08-02T00:00:15.818Z,96742.31
2022-08-02T00:02:46.177Z,96742.88
2022-08-02T00:05:14.733Z,96735.34
2022-08-02T00:07:42.997Z,96730.69
2022-08-02T00:10:12.467Z,96727.13
2022-08-02T00:12:40.747Z,96721.94
2022-08-02T00:15:10.542Z,96720.91
2022-08-02T00:17:45.549Z,96724.66
2022-08-02T00:20:15.418Z,96726.03
2022-08-02T00:22:43.156Z,96723.66
2022-08-02T00:25:10.995Z,96729.09
2022-08-02T00:27:38.819Z,96725.56
2022-08-02T00:30:07.499Z,96727.47
2022-08-02T00:32:35.279Z,96725.84
2022-08-02T00:35:04.880Z,96728.53
2022-08-02T00:37:32.628Z,96721.47
2022-08-02T00:40:02.141Z,96720.66
2022-08-02T00:42:29.805Z,96728.28
2022-08-02T00:44:58.852Z,96719.34
2022-08-02T00:47:26.616Z,96728.56
2022-08-02T00:49:54.308Z,96722.34
2022-08-02T00:52:23.639Z,96710.66
2022-08-02T00:54:51.653Z,96710.41
2022-08-02T00:57:19.439Z,96706.38
2022-08-02T00:59:47.325Z,96698.28
2022-08-02T01:02:15.404Z,96699.34
2022-08-02T01:04:43.337Z,96697.19
2022-08-02T01:07:13.035Z,96692.25
2022-08-02T01:09:43.101Z,96692.88
2022-08-02T01:12:11.979Z,96698.00
2022-08-02T01:14:41.643Z,96693.13
2022-08-02T01:17:13.285Z,96684.22
2022-08-02T01:19:50.446Z,96688.28
2022-08-02T01:23:00.477Z,96689.09
2022-08-02T01:25:49.893Z,96699.38
2022-08-02T01:28:34.158Z,96694.25
2022-08-02T01:31:05.611Z,96698.28
2022-08-02T01:33:39.042Z,96696.63
2022-08-02T01:36:12.726Z,96693.09
2022-08-02T01:38:43.880Z,96694.75
2022-08-02T01:41:16.185Z,96692.06
2022-08-02T01:43:47.575Z,96690.44
2022-08-02T01:46:17.698Z,96683.94
2022-08-02T01:48:48.392Z,96683.09
2022-08-02T01:51:19.638Z,96681.75
2022-08-02T01:53:50.960Z,96682.63
2022-08-02T01:56:20.584Z,96685.31
2022-08-02T01:58:50.860Z,96683.66
2022-08-02T02:01:22.348Z,96690.38
2022-08-02T02:03:50.779Z,96690.66
2022-08-02T02:06:19.957Z,96686.88
2022-08-02T02:08:50.381Z,96698.25
2022-08-02T02:12:11.629Z,96693.44
2022-08-02T02:14:09.196Z,96686.06
2022-08-02T02:16:38.306Z,96693.38
2022-08-02T02:19:08.138Z,96681.25
2022-08-02T02:21:36.142Z,96682.56
2022-08-02T02:24:05.832Z,96685.78
2022-08-02T02:26:37.448Z,96671.22
2022-08-02T02:29:12.655Z,96661.44
2022-08-02T02:31:43.769Z,96663.09
2022-08-02T02:34:15.691Z,96671.72
2022-08-02T02:36:51.389Z,96668.22
2022-08-02T02:39:23.277Z,96659.03
2022-08-02T02:41:54.315Z,96657.16
2022-08-02T02:44:23.928Z,96666.94
2022-08-02T02:46:54.910Z,96669.06
2022-08-02T02:49:24.100Z,96665.00
2022-08-02T02:51:53.059Z,96670.38
2022-08-02T02:54:32.812Z,96667.94
2022-08-02T02:57:03.624Z,96665.53
2022-08-02T02:59:34.107Z,96662.56
2022-08-02T03:02:03.437Z,96667.72
2022-08-02T03:04:55.227Z,96662.81
2022-08-02T03:07:19.954Z,96663.91
2022-08-02T03:09:54.018Z,96667.16
2022-08-02T03:12:27.184Z,96665.50
2022-08-02T03:15:00.789Z,96660.91
2022-08-02T03:17:38.795Z,96659.81
2022-08-02T03:20:10.644Z,96654.16
2022-08-02T03:22:38.505Z,96653.84
2022-08-02T03:25:07.596Z,96656.06
2022-08-02T03:27:36.566Z,96646.88
2022-08-02T03:30:07.827Z,96648.72
2022-08-02T03:32:37.213Z,96638.19
2022-08-02T03:35:07.858Z,96639.56
2022-08-02T03:37:38.027Z,96641.19
2022-08-02T03:40:09.539Z,96634.19
2022-08-02T03:42:37.378Z,96631.22
2022-08-02T03:45:10.125Z,96626.88
2022-08-02T03:47:39.094Z,96630.63
2022-08-02T03:50:08.671Z,96636.28
2022-08-02T03:52:37.519Z,96637.06
2022-08-02T03:55:05.909Z,96634.34
2022-08-02T03:57:33.913Z,96642.75
2022-08-02T04:00:01.622Z,96635.50
2022-08-02T04:02:30.718Z,96631.19
2022-08-02T04:04:58.430Z,96637.13
2022-08-02T04:08:02.567Z,96635.97
2022-08-02T04:10:13.876Z,96642.50
2022-08-02T04:12:41.920Z,96639.25
2022-08-02T04:15:12.824Z,96637.13
2022-08-02T04:17:44.720Z,96642.25
2022-08-02T04:20:18.947Z,96647.06
2022-08-02T04:22:50.389Z,96651.16
2022-08-02T04:25:21.158Z,96645.22
2022-08-02T04:28:16.542Z,96653.38
2022-08-02T04:30:47.308Z,96654.97
2022-08-02T04:33:16.931Z,96659.31
2022-08-02T04:35:45.516Z,96660.66
2022-08-02T04:38:14.609Z,96666.34
2022-08-02T04:40:50.694Z,96667.72
2022-08-02T04:43:18.400Z,96666.06
2022-08-02T04:45:48.039Z,96666.94
2022-08-02T04:48:17.140Z,96666.94
2022-08-02T04:50:44.995Z,96674.47
2022-08-02T04:53:12.772Z,96669.59
2022-08-02T04:55:40.521Z,96671.19
2022-08-02T04:58:30.167Z,96672.28
2022-08-02T05:00:56.081Z,96681.97
2022-08-02T05:03:25.238Z,96679.78
2022-08-02T05:05:52.935Z,96677.03
2022-08-02T05:08:20.669Z,96684.31
2022-08-02T05:10:48.509Z,96688.59
2022-08-02T05:13:16.307Z,96686.97
2022-08-02T05:15:44.062Z,96683.38
2022-08-02T05:18:12.317Z,96686.63
2022-08-02T05:20:42.381Z,96685.75
2022-08-02T05:23:10.083Z,96693.38
2022-08-02T05:25:37.858Z,96689.22
2022-08-02T05:28:11.025Z,96690.88
2022-08-02T05:30:39.412Z,96697.88
2022-08-02T05:33:07.183Z,96686.16
2022-08-02T05:35:35.143Z,96690.69
2022-08-02T05:38:04.252Z,96693.19
2022-08-02T05:40:32.319Z,96682.50
2022-08-02T05:43:00.082Z,96685.63
2022-08-02T05:45:28.015Z,96678.59
2022-08-02T05:47:55.886Z,96682.28
2022-08-02T05:50:24.275Z,96687.00
2022-08-02T05:52:59.250Z,96686.47
2022-08-02T05:55:31.226Z,96678.09
2022-08-02T05:58:07.409Z,96692.97
2022-08-02T06:00:36.415Z,96689.81
2022-08-02T06:03:21.795Z,96687.72
2022-08-02T06:06:06.958Z,96686.00
2022-08-02T06:08:39.382Z,96689.81
2022-08-02T06:11:13.334Z,96685.94
2022-08-02T06:13:42.174Z,96694.72
2022-08-02T06:16:14.046Z,96688.97
2022-08-02T06:18:44.030Z,96689.88
2022-08-02T06:22:34.858Z,96687.09
2022-08-02T06:24:00.265Z,96685.06
2022-08-02T06:26:29.652Z,96679.72
2022-08-02T06:28:59.009Z,96686.47
2022-08-02T06:31:26.907Z,96683.31
2022-08-02T06:33:54.653Z,96690.59
2022-08-02T06:36:33.143Z,96687.88
2022-08-02T06:39:04.644Z,96681.75
2022-08-02T06:41:41.140Z,96691.53
2022-08-02T06:44:45.052Z,96686.09
2022-08-02T06:47:11.314Z,96684.31
2022-08-02T06:49:52.879Z,96684.50
2022-08-02T06:52:27.870Z,96686.75
2022-08-02T06:54:56.838Z,96678.47
2022-08-02T06:57:25.958Z,96681.22
2022-08-02T06:59:53.740Z,96683.47
2022-08-02T07:02:21.762Z,96687.19
2022-08-02T07:04:49.614Z,96692.66
2022-08-02T07:07:17.395Z,96690.59
2022-08-02T07:09:56.388Z,96687.81
2022-08-02T07:12:31.401Z,96684.75
2022-08-02T07:14:59.677Z,96685.78
2022-08-02T07:17:27.758Z,96682.84
2022-08-02T07:19:55.570Z,96684.94
2022-08-02T07:22:24.482Z,96691.31
2022-08-02T07:24:52.734Z,96695.03
2022-08-02T07:27:21.454Z,96693.03
2022-08-02T07:29:50.548Z,96692.22
2022-08-02T07:32:18.881Z,96700.47
2022-08-02T07:34:51.159Z,96699.78
2022-08-02T07:37:35.711Z,96703.22
2022-08-02T07:40:13.396Z,96704.34
2022-08-02T07:42:42.525Z,96698.53
2022-08-02T07:45:12.401Z,96699.22
2022-08-02T07:47:40.382Z,96692.47
2022-08-02T07:50:09.771Z,96689.63
2022-08-02T07:52:37.894Z,96689.03
2022-08-02T07:55:06.900Z,96690.28
2022-08-02T07:57:34.736Z,96691.66
2022-08-02T08:00:02.580Z,96677.63
2022-08-02T08:02:31.708Z,96683.81
2022-08-02T08:04:59.428Z,96679.69
2022-08-02T08:07:27.217Z,96692.00
2022-08-02T08:09:56.569Z,96684.13
2022-08-02T08:12:24.800Z,96686.06
2022-08-02T08:14:52.684Z,96683.56
2022-08-02T08:17:20.649Z,96686.78
2022-08-02T08:19:53.242Z,96695.94
2022-08-02T08:22:21.277Z,96686.59
2022-08-02T08:24:49.116Z,96694.91
2022-08-02T08:27:17.436Z,96691.88
2022-08-02T08:29:46.209Z,96696.38
2022-08-02T08:32:17.663Z,96688.22
2022-08-02T08:34:46.418Z,96684.44
2022-08-02T08:37:17.701Z,96680.28
2022-08-02T08:39:56.224Z,96685.66
2022-08-02T08:42:25.823Z,96691.03
2022-08-02T08:44:53.632Z,96683.78
2022-08-02T08:47:24.549Z,96687.19
2022-08-02T08:49:56.806Z,96683.78
2022-08-02T08:52:28.190Z,96676.41
2022-08-02T08:54:57.495Z,96684.63
2022-08-02T08:57:30.658Z,96676.84
2022-08-02T08:59:58.592Z,96676.53
2022-08-02T09:02:28.451Z,96678.00
2022-08-02T09:04:59.293Z,96668.75
2022-08-02T09:07:28.451Z,96676.84
2022-08-02T09:09:58.646Z,96681.13
2022-08-02T09:12:26.679Z,96676.81
2022-08-02T09:14:54.430Z,96666.13
2022-08-02T09:17:22.342Z,96668.97
2022-08-02T09:20:07.845Z,96672.28
2022-08-02T09:22:37.067Z,96671.81
2022-08-02T09:25:06.190Z,96677.78
2022-08-02T09:27:38.088Z,96681.41
2022-08-02T09:30:16.679Z,96670.41
2022-08-02T09:32:47.970Z,96661.63
2022-08-02T09:36:06.103Z,96667.66
2022-08-02T09:38:22.221Z,96668.28
2022-08-02T09:40:52.207Z,96661.44
2022-08-02T09:43:20.848Z,96666.00
2022-08-02T09:45:48.605Z,96660.97
2022-08-02T09:48:16.326Z,96657.69
2022-08-02T09:50:46.327Z,96642.59
2022-08-02T09:53:14.697Z,96660.06
2022-08-02T09:55:43.882Z,96654.81
2022-08-02T09:58:21.384Z,96652.28
2022-08-02T10:00:56.455Z,96649.81
2022-08-02T10:03:26.768Z,96643.47
2022-08-02T10:06:04.312Z,96642.09
2022-08-02T10:08:33.814Z,96641.88
2022-08-02T10:11:03.497Z,96648.03
2022-08-02T10:13:33.072Z,96645.22
2022-08-02T10:16:02.458Z,96641.34
2022-08-02T10:18:39.952Z,96636.78
2022-08-02T10:21:11.378Z,96639.13
2022-08-02T10:23:41.086Z,96632.81
2022-08-02T10:26:10.937Z,96620.63
2022-08-02T10:28:38.887Z,96630.75
2022-08-02T10:31:08.653Z,96620.03
2022-08-02T10:33:39.308Z,96614.50
2022-08-02T10:36:10.041Z,96612.56
2022-08-02T10:38:38.637Z,96614.97
2022-08-02T10:41:07.998Z,96614.59
2022-08-02T10:43:45.804Z,96615.03
2022-08-02T10:46:24.274Z,96609.28
2022-08-02T10:52:07.483Z,96605.81
2022-08-02T10:54:37.875Z,96610.22
2022-08-02T10:57:16.310Z,96605.94
2022-08-02T10:59:45.891Z,96607.75
2022-08-02T11:02:15.032Z,96607.28
2022-08-02T11:05:16.569Z,96607.13
2022-08-02T11:07:47.882Z,96604.47
2022-08-02T11:10:38.280Z,96602.63
2022-08-02T11:13:08.902Z,96603.19
2022-08-02T11:15:59.029Z,96597.81
2022-08-02T11:18:59.733Z,96598.13
2022-08-02T11:21:28.873Z,96593.31
2022-08-02T11:23:57.437Z,96589.47
2022-08-02T11:26:45.355Z,96582.81
2022-08-02T11:29:15.890Z,96572.84
2022-08-02T11:31:46.611Z,96580.78
2022-08-02T11:34:36.373Z,96576.44
2022-08-02T11:37:03.128Z,96581.34
2022-08-02T11:39:30.950Z,96568.72
2022-08-02T11:42:00.523Z,96575.41
2022-08-02T11:44:30.163Z,96571.19
2022-08-02T11:47:00.670Z,96567.94
2022-08-02T11:49:29.163Z,96572.81
2022-08-02T11:52:01.021Z,96574.56
2022-08-02T11:54:32.372Z,96569.09
2022-08-02T11:57:20.268Z,96559.16
2022-08-02T11:59:49.672Z,96560.81
2022-08-02T12:02:19.629Z,96558.84
2022-08-02T12:04:58.010Z,96563.38
2022-08-02T12:07:35.324Z,96557.59
2022-08-02T12:10:06.884Z,96555.72
2022-08-02T12:12:34.933Z,96556.47
2022-08-02T12:15:02.715Z,96556.44
2022-08-02T12:17:49.358Z,96561.22
2022-08-02T12:20:17.622Z,96561.22
2022-08-02T12:22:45.452Z,96557.88
2022-08-02T12:25:33.532Z,96562.75
2022-08-02T12:28:17.755Z,96560.44
2022-08-02T12:30:57.997Z,96557.38
2022-08-02T12:33:28.876Z,96554.47
2022-08-02T12:35:58.240Z,96554.31
2022-08-02T12:38:25.957Z,96547.50
2022-08-02T12:40:54.228Z,96550.84
2022-08-02T12:43:24.732Z,96545.28
2022-08-02T12:45:53.276Z,96550.41
2022-08-02T12:48:39.136Z,96533.59
2022-08-02T12:51:20.958Z,96538.88
2022-08-02T12:53:59.621Z,96523.41
2022-08-02T12:56:29.810Z,96527.38
2022-08-02T12:58:57.739Z,96521.00
2022-08-02T13:01:27.467Z,96518.06
2022-08-02T13:04:09.811Z,96514.41
2022-08-02T13:06:44.392Z,96510.56
2022-08-02T13:09:18.005Z,96507.75
2022-08-02T13:11:46.487Z,96512.97
2022-08-02T13:14:15.405Z,96509.47
2022-08-02T13:16:44.986Z,96501.88
2022-08-02T13:19:15.472Z,96501.75
2022-08-02T13:22:01.271Z,96503.97
2022-08-02T13:24:41.023Z,96502.47
2022-08-02T13:27:22.300Z,96502.13
2022-08-02T13:29:50.685Z,96491.66
2022-08-02T13:32:19.008Z,96491.19
2022-08-02T13:34:48.696Z,96489.16
2022-08-02T13:37:16.679Z,96495.41
2022-08-02T13:40:05.556Z,96484.97
2022-08-02T13:42:33.277Z,96494.66
2022-08-02T13:45:11.781Z,96487.72
2022-08-02T13:48:04.244Z,96494.88
2022-08-02T13:50:30.799Z,96489.38
2022-08-02T13:52:58.588Z,96488.75
2022-08-02T13:55:26.366Z,96488.34
2022-08-02T13:57:54.531Z,96484.91
2022-08-02T14:00:35.615Z,96490.09
2022-08-02T14:03:05.330Z,96476.50
2022-08-02T14:05:39.655Z,96480.66
2022-08-02T14:08:16.861Z,96478.81
2022-08-02T14:10:45.082Z,96479.22
2022-08-02T14:13:12.873Z,96462.78
2022-08-02T14:15:40.685Z,96457.03
2022-08-02T14:18:08.435Z,96462.34
2022-08-02T14:20:37.627Z,96457.31
2022-08-02T14:23:05.413Z,96458.63
2022-08-02T14:25:33.276Z,96464.88
2022-08-02T14:28:01.081Z,96458.25
2022-08-02T14:30:28.856Z,96459.97
2022-08-02T14:32:57.324Z,96455.66
2022-08-02T14:35:25.093Z,96458.31
2022-08-02T14:37:54.394Z,96460.28
2022-08-02T14:40:27.778Z,96456.13
2022-08-02T14:42:56.107Z,96456.28
2022-08-02T14:45:26.069Z,96452.78
2022-08-02T14:48:05.167Z,96453.69
2022-08-02T14:50:33.753Z,96452.75
2022-08-02T14:53:02.973Z,96454.91
2022-08-02T14:55:30.669Z,96452.94
2022-08-02T14:57:58.444Z,96450.91
2022-08-02T15:00:26.201Z,96448.56
2022-08-02T15:02:56.681Z,96445.13
2022-08-02T15:05:24.457Z,96448.16
2022-08-02T15:07:52.249Z,96450.47
2022-08-02T15:10:22.218Z,96446.41
2022-08-02T15:12:49.967Z,96447.78
2022-08-02T15:15:18.100Z,96446.94
2022-08-02T15:17:45.822Z,96439.69
2022-08-02T15:20:25.801Z,96441.44
2022-08-02T15:22:54.092Z,96439.34
2022-08-02T15:25:23.575Z,96442.56
2022-08-02T15:27:51.338Z,96433.81
2022-08-02T15:30:19.217Z,96440.19
2022-08-02T15:32:53.479Z,96434.72
2022-08-02T15:35:21.786Z,96425.16
2022-08-02T15:37:49.691Z,96424.78
2022-08-02T15:40:17.576Z,96426.22
2022-08-02T15:42:46.769Z,96431.38
2022-08-02T15:45:15.761Z,96420.41
2022-08-02T15:47:50.459Z,96411.47
2022-08-02T15:50:18.857Z,96425.19
2022-08-02T15:52:46.627Z,96429.16
2022-08-02T15:55:14.430Z,96417.91
2022-08-02T15:57:42.170Z,96417.59
2022-08-02T16:00:18.084Z,96420.44
2022-08-02T16:02:47.493Z,96415.22
2022-08-02T16:05:17.617Z,96424.06
2022-08-02T16:07:45.495Z,96413.41
2022-08-02T16:10:13.337Z,96423.66
2022-08-02T16:12:41.169Z,96417.22
2022-08-02T16:15:12.516Z,96413.03
2022-08-02T16:17:48.558Z,96416.19
2022-08-02T16:20:21.916Z,96417.06
2022-08-02T16:22:49.651Z,96416.81
2022-08-02T16:25:17.716Z,96413.53
2022-08-02T16:27:59.284Z,96411.19
2022-08-02T16:30:34.845Z,96412.47
2022-08-02T16:33:02.788Z,96417.22
2022-08-02T16:35:30.515Z,96410.13
2022-08-02T16:37:58.358Z,96409.56
2022-08-02T16:40:26.452Z,96407.72
2022-08-02T16:42:54.177Z,96405.72
2022-08-02T16:45:22.804Z,96401.69
2022-08-02T16:47:56.465Z,96405.84
2022-08-02T16:50:29.302Z,96409.84
2022-08-02T16:52:58.534Z,96402.88
2022-08-02T16:55:29.335Z,96407.00
2022-08-02T16:57:58.874Z,96403.63
2022-08-02T17:00:26.927Z,96409.00
2022-08-02T17:02:59.648Z,96398.81
2022-08-02T17:05:29.754Z,96407.25
2022-08-02T17:08:17.277Z,96411.59
2022-08-02T17:10:45.557Z,96400.94
2022-08-02T17:13:13.330Z,96408.13
2022-08-02T17:16:07.641Z,96410.00
2022-08-02T17:18:30.845Z,96413.16
2022-08-02T17:20:58.981Z,96410.63
2022-08-02T17:24:04.498Z,96417.75
2022-08-02T17:26:14.725Z,96415.66
2022-08-02T17:29:06.935Z,96416.19
2022-08-02T17:31:42.400Z,96414.94
2022-08-02T17:34:12.909Z,96413.66
2022-08-02T17:36:44.600Z,96412.97
2022-08-02T17:39:17.397Z,96409.03
2022-08-02T17:41:48.847Z,96418.31
2022-08-02T17:44:36.997Z,96412.97
2022-08-02T17:47:07.046Z,96423.91
2022-08-02T17:49:42.640Z,96419.16
2022-08-02T17:52:47.934Z,96412.47
2022-08-02T17:54:59.600Z,96418.19
2022-08-02T17:57:55.603Z,96422.97
2022-08-02T18:00:16.444Z,96421.63
2022-08-02T18:02:50.524Z,96414.69
2022-08-02T18:05:39.374Z,96408.94
2022-08-02T18:08:09.839Z,96418.34
2022-08-02T18:10:39.297Z,96410.06
2022-08-02T18:13:07.230Z,96422.28
2022-08-02T18:15:35.701Z,96420.03
2022-08-02T18:18:03.796Z,96411.34
2022-08-02T18:20:33.165Z,96414.25
2022-08-02T18:23:01.230Z,96411.97
2022-08-02T18:25:37.267Z,96416.66
2022-08-02T18:28:12.581Z,96411.19
2022-08-02T18:30:40.635Z,96416.50
2022-08-02T18:33:59.212Z,96414.94
2022-08-02T18:35:57.881Z,96415.59
2022-08-02T18:38:26.817Z,96420.38
2022-08-02T18:40:55.694Z,96416.22
2022-08-02T18:46:15.414Z,96419.75
2022-08-02T18:48:46.674Z,96423.78
2022-08-02T18:51:19.184Z,96437.09
2022-08-02T18:53:50.910Z,96430.00
2022-08-02T18:56:24.686Z,96424.84
2022-08-02T18:58:53.290Z,96438.72
2022-08-02T19:01:33.554Z,96434.69
2022-08-02T19:04:04.636Z,96439.28
2022-08-02T19:06:33.788Z,96436.06
2022-08-02T19:09:11.110Z,96440.28
2022-08-02T19:11:47.205Z,96445.56
2022-08-02T19:14:19.365Z,96439.00
2022-08-02T19:16:55.225Z,96442.75
2022-08-02T19:19:23.309Z,96441.44
2022-08-02T19:22:15.876Z,96443.63
2022-08-02T19:24:51.639Z,96454.59
2022-08-02T19:27:26.206Z,96456.50
2022-08-02T19:30:02.278Z,96461.31
2022-08-02T19:32:42.721Z,96460.16
2022-08-02T19:35:30.428Z,96447.31
2022-08-02T19:38:09.606Z,96455.84
2022-08-02T19:40:38.657Z,96455.03
2022-08-02T19:44:26.076Z,96453.69
2022-08-02T19:45:57.183Z,96460.44
2022-08-02T19:48:27.219Z,96466.34
2022-08-02T19:51:00.529Z,96456.28
2022-08-02T19:53:47.726Z,96460.59
2022-08-02T19:56:20.083Z,96452.56
2022-08-02T19:58:50.250Z,96459.63
2022-08-02T20:01:26.961Z,96459.28
2022-08-02T20:04:34.917Z,96469.72
2022-08-02T20:07:04.829Z,96472.75
2022-08-02T20:09:47.072Z,96453.28
2022-08-02T20:12:15.376Z,96469.91
2022-08-02T20:14:50.801Z,96468.97
2022-08-02T20:17:20.840Z,96461.72
2022-08-02T20:20:09.063Z,96471.09
2022-08-02T20:22:58.666Z,96470.56
2022-08-02T20:25:29.091Z,96471.22
2022-08-02T20:27:57.111Z,96466.47
2022-08-02T20:30:25.474Z,96461.09
2022-08-02T20:32:58.873Z,96469.50
2022-08-02T20:35:30.556Z,96462.09
2022-08-02T20:38:02.883Z,96467.91
2022-08-02T20:40:34.661Z,96458.59
2022-08-02T20:43:02.841Z,96457.31
2022-08-02T20:45:35.645Z,96446.97
2022-08-02T20:48:03.587Z,96456.00
2022-08-02T20:50:52.156Z,96459.66
2022-08-02T20:53:24.103Z,96458.06
2022-08-02T20:56:00.332Z,96455.25
2022-08-02T20:58:28.192Z,96450.81
2022-08-02T21:01:00.004Z,96452.66
2022-08-02T21:03:39.439Z,96456.28
2022-08-02T21:06:09.377Z,96453.25
2022-08-02T21:08:38.380Z,96450.63
2022-08-02T21:11:09.208Z,96453.88
2022-08-02T21:13:47.105Z,96453.25
2022-08-02T21:16:28.102Z,96447.53
2022-08-02T21:19:00.234Z,96455.81
2022-08-02T21:21:28.329Z,96453.28
2022-08-02T21:23:57.609Z,96448.28
2022-08-02T21:26:30.459Z,96443.63
2022-08-02T21:29:00.962Z,96446.03
2022-08-02T21:31:33.689Z,96449.78
2022-08-02T21:34:04.034Z,96444.81
2022-08-02T21:36:49.363Z,96449.88
2022-08-02T21:39:18.433Z,96444.53
2022-08-02T21:41:47.587Z,96449.06
2022-08-02T21:44:16.345Z,96452.09
2022-08-02T21:46:45.462Z,96443.41
2022-08-02T21:49:13.819Z,96450.09
2022-08-02T21:51:43.603Z,96449.88
2022-08-02T21:54:19.563Z,96453.47
2022-08-02T21:56:51.898Z,96456.53
2022-08-02T22:02:09.169Z,96461.44
2022-08-02T22:04:36.901Z,96459.22
2022-08-02T22:07:04.674Z,96462.66
2022-08-02T22:09:42.839Z,96463.34
2022-08-02T22:12:17.981Z,96461.34
2022-08-02T22:14:49.489Z,96464.22
2022-08-02T22:17:50.655Z,96473.50
2022-08-02T22:20:12.353Z,96476.09
2022-08-02T22:22:40.618Z,96474.22
2022-08-02T22:25:10.070Z,96469.97
2022-08-02T22:28:36.192Z,96472.88
2022-08-02T22:30:39.164Z,96465.72
2022-08-02T22:33:33.148Z,96476.03
2022-08-02T22:36:01.934Z,96478.91
2022-08-02T22:38:29.987Z,96473.19
2022-08-02T22:40:57.694Z,96474.59
2022-08-02T22:43:26.779Z,96476.03
2022-08-02T22:45:59.163Z,96480.16
2022-08-02T22:48:27.382Z,96477.22
2022-08-02T22:50:55.447Z,96475.03
2022-08-02T22:53:24.716Z,96478.66
2022-08-02T22:56:03.881Z,96476.41
2022-08-02T22:58:33.817Z,96479.84
2022-08-02T22:58:45.272Z,96424.25
2022-08-02T22:59:03.936Z,96451.56
2022-08-02T23:01:01.852Z,96474.72
2022-08-02T23:03:29.809Z,96481.34
2022-08-02T23:05:57.969Z,96475.47
2022-08-02T23:08:26.081Z,96473.69
2022-08-02T23:10:53.996Z,96481.31
2022-08-02T23:13:25.343Z,96482.66
2022-08-02T23:16:14.752Z,96480.91
2022-08-02T23:18:59.970Z,96477.91
2022-08-02T23:22:01.115Z,96480.97
2022-08-02T23:24:22.364Z,96480.97
2022-08-02T23:26:50.113Z,96471.50
2022-08-02T23:29:17.809Z,96477.91
2022-08-02T23:31:46.874Z,96475.84
2022-08-02T23:34:14.586Z,96471.72
2022-08-02T23:36:42.268Z,96471.88
2022-08-02T23:39:10.125Z,96471.38
2022-08-02T23:41:37.840Z,96474.28
2022-08-02T23:44:14.511Z,96478.31
2022-08-02T23:46:43.105Z,96476.50
2022-08-02T23:49:13.681Z,96479.78
2022-08-02T23:51:41.468Z,96475.47
2022-08-02T23:54:09.364Z,96477.69
2022-08-02T23:56:37.167Z,96482.63
2022-08-02T23:59:05.444Z,96477.97
